Time;durP1;ratioP1;P1;durP2;ratioP2;P2;SDS_P1;SDS_P2;PMS_P1;PMS_P2;Temp;Humidity;BMP_temperature;BMP_pressure;BME280_temperature;BME280_humidity;BME280_pressure;Samples;Min_cycle;Max_cycle;Signal;HPM_P1;HPM_P2
2021/09/17 00:01:42;;;;;;;5.40;4.45;;;;;;;26.35;39.81;95057.72;5001751;28;20053;-80
2021/09/17 00:04:07;;;;;;;8.38;4.75;;;;;;;26.35;39.86;95050.25;5009988;28;20038;-80
2021/09/17 00:06:33;;;;;;;6.28;4.70;;;;;;;26.35;39.87;95041.28;5008357;28;20034;-80
2021/09/17 00:08:58;;;;;;;7.53;4.88;;;;;;;26.32;40.23;95036.88;5013270;28;20115;-81
2021/09/17 00:11:24;;;;;;;5.85;4.60;;;;;;;26.33;39.92;95027.41;5005138;28;20622;-81
2021/09/17 00:13:49;;;;;;;6.35;4.47;;;;;;;26.16;40.19;94996.84;4979160;28;20399;-81
2021/09/17 00:16:15;;;;;;;8.23;4.75;;;;;;;26.24;40.29;95018.84;4992732;28;20026;-81
2021/09/17 00:18:40;;;;;;;6.13;4.45;;;;;;;26.30;40.19;95033.94;4983709;28;20437;-81
2021/09/17 00:21:06;;;;;;;5.55;4.35;;;;;;;26.31;40.28;95029.94;4988941;28;20037;-81
2021/09/17 00:23:32;;;;;;;6.60;4.72;;;;;;;26.30;40.05;95039.41;4990452;28;20056;-81
2021/09/17 00:25:58;;;;;;;8.63;5.20;;;;;;;26.28;40.21;95031.00;4990706;28;20887;-81
2021/09/17 00:28:23;;;;;;;6.05;4.60;;;;;;;26.28;40.16;95025.53;4998538;28;20030;-81
2021/09/17 00:30:49;;;;;;;6.97;4.78;;;;;;;26.28;40.63;95025.53;5004356;28;20036;-80
2021/09/17 00:33:14;;;;;;;6.97;4.57;;;;;;;26.21;40.65;95012.44;5005025;28;20014;-81
2021/09/17 00:35:40;;;;;;;7.03;4.45;;;;;;;26.27;40.14;95013.06;4995393;28;20026;-81
2021/09/17 00:38:05;;;;;;;6.68;4.50;;;;;;;26.26;40.26;95014.31;4994097;28;20053;-81
2021/09/17 00:40:31;;;;;;;5.47;4.30;;;;;;;26.23;40.47;95001.69;5004661;28;20026;-81
2021/09/17 00:42:57;;;;;;;5.43;4.43;;;;;;;26.25;40.22;95004.66;4996647;28;20467;-81
2021/09/17 00:45:22;;;;;;;7.22;4.80;;;;;;;26.24;40.25;95002.44;4993479;28;20040;-81
2021/09/17 00:47:48;;;;;;;5.97;4.80;;;;;;;26.23;40.29;95012.63;4998219;28;20026;-81
2021/09/17 00:50:16;;;;;;;6.43;4.80;;;;;;;26.22;40.44;95013.91;4992390;28;20061;-81
2021/09/17 00:52:42;;;;;;;6.63;5.00;;;;;;;26.23;40.49;95012.63;4991088;28;20509;-81
2021/09/17 00:55:08;;;;;;;6.00;4.82;;;;;;;26.23;40.35;95007.16;4986896;28;21049;-81
2021/09/17 00:57:34;;;;;;;6.32;4.38;;;;;;;26.16;40.79;94996.84;4987626;28;20053;-81
2021/09/17 00:59:59;;;;;;;5.75;4.40;;;;;;;26.21;40.19;95009.69;5018158;28;20034;-81
2021/09/17 01:02:25;;;;;;;6.22;4.88;;;;;;;26.21;40.58;95003.50;4987024;28;20034;-81
2021/09/17 01:04:50;;;;;;;6.63;4.82;;;;;;;26.13;40.39;95003.38;4988432;28;20022;-81
2021/09/17 01:07:16;;;;;;;5.43;4.68;;;;;;;26.20;40.61;95002.72;4988601;28;20394;-81
2021/09/17 01:09:41;;;;;;;6.88;4.75;;;;;;;26.18;40.63;95005.28;5003770;28;20037;-81
2021/09/17 01:12:07;;;;;;;5.90;4.60;;;;;;;26.18;40.74;94994.31;4988182;28;20038;-81
2021/09/17 01:14:34;;;;;;;5.35;4.28;;;;;;;26.19;40.62;94993.06;4989367;28;20037;-81
2021/09/17 01:16:59;;;;;;;6.22;4.10;;;;;;;26.09;40.41;94972.84;4988362;28;20105;-82
2021/09/17 01:19:25;;;;;;;5.93;4.38;;;;;;;26.19;40.77;94984.84;4987709;28;20042;-81
2021/09/17 01:22:01;;;;;;;5.53;4.60;;;;;;;26.17;40.52;94979.16;5003381;28;20029;-82
2021/09/17 01:24:27;;;;;;;5.72;4.20;;;;;;;26.18;40.89;94977.91;5007510;28;20021;-80
2021/09/17 01:26:52;;;;;;;6.20;4.72;;;;;;;26.17;40.69;94970.94;5009486;28;20037;-81
2021/09/17 01:29:18;;;;;;;6.05;4.25;;;;;;;26.09;40.66;94964.63;5010407;28;20042;-81
2021/09/17 01:31:43;;;;;;;6.80;4.25;;;;;;;26.12;40.35;94974.53;5009661;28;20034;-81
2021/09/17 01:34:09;;;;;;;5.10;4.22;;;;;;;26.16;40.72;94983.16;5012316;28;20026;-81
2021/09/17 01:36:35;;;;;;;7.03;4.38;;;;;;;26.16;40.91;94979.69;5016173;28;20026;-83
2021/09/17 01:39:00;;;;;;;6.28;4.25;;;;;;;26.15;40.77;94984.44;5013883;28;20026;-81
2021/09/17 01:41:26;;;;;;;7.00;4.72;;;;;;;26.15;40.75;94978.94;5003111;28;20038;-80
2021/09/17 01:43:51;;;;;;;6.28;4.20;;;;;;;26.06;40.94;94971.16;4992442;28;20116;-81
2021/09/17 01:46:18;;;;;;;7.30;4.55;;;;;;;26.11;40.76;94973.06;4991808;28;20031;-81
2021/09/17 01:48:43;;;;;;;6.40;4.40;;;;;;;26.12;40.55;94974.53;4992457;28;20042;-81
2021/09/17 01:51:08;;;;;;;6.25;4.70;;;;;;;26.14;40.82;94972.00;4991819;28;20026;-81
2021/09/17 01:53:34;;;;;;;6.15;4.70;;;;;;;26.13;40.94;94970.53;4992313;28;20027;-81
2021/09/17 01:56:00;;;;;;;5.72;4.18;;;;;;;26.13;40.85;94965.06;4991734;28;20041;-80
2021/09/17 01:58:26;;;;;;;5.53;4.45;;;;;;;26.13;40.92;94958.84;4991282;28;20030;-81
2021/09/17 02:00:51;;;;;;;5.50;4.47;;;;;;;26.11;41.04;94956.63;4991560;28;21617;-81
2021/09/17 02:03:17;;;;;;;6.80;5.05;;;;;;;26.12;41.02;94958.09;4994614;28;20481;-81
2021/09/17 02:05:42;;;;;;;5.28;4.22;;;;;;;26.10;40.81;94955.16;4992972;28;20034;-81
2021/09/17 02:08:08;;;;;;;5.47;4.38;;;;;;;26.05;41.17;94947.81;4990564;28;20031;-81
2021/09/17 02:10:33;;;;;;;6.75;4.80;;;;;;;26.05;40.88;94947.06;4992199;28;20038;-81
2021/09/17 02:12:58;;;;;;;5.53;4.38;;;;;;;26.11;40.92;94959.38;5022896;28;20050;-81
2021/09/17 02:15:24;;;;;;;6.07;4.68;;;;;;;26.10;40.99;94949.69;4991806;28;20033;-81
2021/09/17 02:17:49;;;;;;;6.43;4.70;;;;;;;26.09;41.20;94948.22;4992112;28;20413;-82
2021/09/17 02:20:15;;;;;;;6.32;4.43;;;;;;;26.09;41.13;94945.47;4991843;28;20022;-80
2021/09/17 02:22:40;;;;;;;6.35;4.90;;;;;;;26.07;41.13;94950.75;4990789;28;20030;-81
2021/09/17 02:25:06;;;;;;;5.88;4.80;;;;;;;26.06;40.93;94943.06;4989836;28;20034;-80
2021/09/17 02:27:31;;;;;;;6.32;4.78;;;;;;;26.07;40.91;94950.75;4989247;28;20045;-81
2021/09/17 02:29:57;;;;;;;5.63;4.70;;;;;;;26.08;41.13;94946.72;4990537;28;20540;-81
2021/09/17 02:32:22;;;;;;;5.35;4.50;;;;;;;26.08;41.39;94941.25;4990508;28;20030;-81
2021/09/17 02:34:48;;;;;;;6.05;4.32;;;;;;;26.07;41.25;94950.75;4990605;28;20390;-81
2021/09/17 02:37:13;;;;;;;5.82;4.47;;;;;;;26.07;41.26;94945.28;4991024;28;20157;-82
2021/09/17 02:39:39;;;;;;;5.63;4.50;;;;;;;26.07;41.11;94942.53;4991394;28;20607;-81
2021/09/17 02:42:05;;;;;;;6.20;4.60;;;;;;;26.04;41.15;94940.88;5005679;28;20048;-81
2021/09/17 02:44:31;;;;;;;5.53;4.50;;;;;;;26.06;41.37;94943.78;5010624;28;20532;-81
2021/09/17 02:46:56;;;;;;;7.28;4.82;;;;;;;26.05;41.29;94936.88;5010333;28;20671;-81
2021/09/17 02:49:22;;;;;;;6.82;4.70;;;;;;;26.06;41.40;94943.78;5010101;28;20033;-81
2021/09/17 02:51:47;;;;;;;7.57;4.43;;;;;;;26.04;41.12;94935.38;5010690;28;20420;-81
2021/09/17 02:54:13;;;;;;;8.32;4.75;;;;;;;26.04;41.42;94946.34;5007897;28;20038;-81
2021/09/17 02:56:38;;;;;;;6.00;4.30;;;;;;;26.05;41.37;94931.41;5012251;28;20026;-81
2021/09/17 02:59:04;;;;;;;6.20;4.30;;;;;;;26.04;41.55;94929.91;5010071;28;20496;-81
2021/09/17 03:01:29;;;;;;;6.32;4.70;;;;;;;26.05;41.14;94936.13;5009352;28;20028;-81
2021/09/17 03:03:54;;;;;;;6.25;4.25;;;;;;;26.05;41.24;94936.88;5009496;28;20025;-81
2021/09/17 03:06:22;;;;;;;7.28;4.70;;;;;;;26.05;41.38;94936.88;5010010;28;20033;-81
2021/09/17 03:08:48;;;;;;;6.55;4.45;;;;;;;26.05;41.48;94936.88;5010234;28;20496;-81
2021/09/17 03:11:13;;;;;;;5.30;4.30;;;;;;;26.04;41.29;94935.38;4994056;28;20041;-81
2021/09/17 03:13:39;;;;;;;5.47;4.30;;;;;;;26.04;41.49;94935.38;4990693;28;20037;-81
2021/09/17 03:16:06;;;;;;;5.97;4.22;;;;;;;26.03;41.34;94928.44;4987999;28;20022;-81
2021/09/17 03:18:32;;;;;;;8.60;4.80;;;;;;;26.02;41.71;94937.94;4990902;28;20022;-82
2021/09/17 03:20:58;;;;;;;6.82;4.50;;;;;;;26.04;41.24;94929.91;4989544;28;20026;-81
2021/09/17 03:23:23;;;;;;;8.55;4.70;;;;;;;26.03;41.54;94931.16;4989172;28;20104;-81
2021/09/17 03:25:49;;;;;;;5.07;4.07;;;;;;;26.02;41.67;94931.69;4989611;28;20029;-81
2021/09/17 03:28:14;;;;;;;6.82;4.53;;;;;;;25.92;41.43;94923.19;4989770;28;20030;-82
2021/09/17 03:30:40;;;;;;;6.47;4.43;;;;;;;26.03;41.48;94942.13;4999257;28;20092;-81
2021/09/17 03:33:05;;;;;;;7.88;5.05;;;;;;;26.03;41.51;94933.91;5009567;28;20528;-81
2021/09/17 03:35:30;;;;;;;6.30;4.28;;;;;;;26.00;41.60;94934.97;5007637;28;20113;-81
2021/09/17 03:37:56;;;;;;;5.95;4.72;;;;;;;26.02;41.64;94926.22;5008399;28;20029;-81
2021/09/17 03:40:21;;;;;;;6.32;4.50;;;;;;;26.03;41.30;94938.66;5009283;28;20032;-80
2021/09/17 03:42:47;;;;;;;6.35;4.28;;;;;;;26.02;41.79;94942.66;5005226;28;20124;-81
2021/09/17 03:45:12;;;;;;;6.25;4.53;;;;;;;26.02;41.96;94937.94;4992936;28;20047;-81
2021/09/17 03:47:38;;;;;;;7.10;4.93;;;;;;;26.02;41.48;94926.97;5002108;28;20117;-80
2021/09/17 03:50:07;;;;;;;7.75;4.90;;;;;;;26.03;41.59;94928.44;4979478;28;20587;-72
2021/09/17 03:52:32;;;;;;;5.50;4.40;;;;;;;26.04;41.16;94929.91;4977568;28;20045;-70
2021/09/17 03:54:58;;;;;;;5.55;4.57;;;;;;;26.05;41.58;94914.97;4987712;28;20030;-70
2021/09/17 03:57:23;;;;;;;6.55;4.75;;;;;;;26.07;41.31;94923.38;4989196;28;20025;-70
2021/09/17 03:59:48;;;;;;;6.70;4.78;;;;;;;26.06;41.86;94927.38;4987450;28;20026;-72
2021/09/17 04:02:14;;;;;;;6.10;4.60;;;;;;;26.06;41.65;94927.38;4985819;28;20030;-70
2021/09/17 04:04:42;;;;;;;6.03;4.97;;;;;;;26.06;41.83;94927.38;4986590;28;20022;-70
2021/09/17 04:07:08;;;;;;;6.60;4.57;;;;;;;25.99;41.85;94906.16;4986940;28;20022;-71
2021/09/17 04:09:34;;;;;;;5.68;4.22;;;;;;;26.07;41.75;94923.38;5002201;28;20030;-71
2021/09/17 04:12:00;;;;;;;8.18;4.40;;;;;;;26.08;41.78;94916.63;5010168;28;20500;-73
2021/09/17 04:14:26;;;;;;;5.75;4.65;;;;;;;26.09;41.73;94915.38;4985150;28;20026;-76
2021/09/17 04:16:51;;;;;;;6.82;4.80;;;;;;;26.09;41.66;94915.38;4976099;28;20086;-81
2021/09/17 04:19:17;;;;;;;6.38;4.65;;;;;;;26.13;41.84;94926.75;4986554;28;20029;-82
2021/09/17 04:21:42;;;;;;;6.97;4.55;;;;;;;26.12;41.76;94936.22;5007653;28;20156;-73
2021/09/17 04:24:08;;;;;;;7.85;5.75;;;;;;;26.01;43.09;94941.91;5001276;28;20046;-73
2021/09/17 04:26:33;;;;;;;7.88;5.65;;;;;;;25.92;43.08;94939.63;4987598;28;20216;-73
2021/09/17 04:28:59;;;;;;;9.80;5.47;;;;;;;25.81;43.22;94937.09;5007176;28;20034;-76
2021/09/17 04:31:24;;;;;;;9.43;6.25;;;;;;;25.82;43.54;94946.75;5004215;28;20025;-74
2021/09/17 04:33:50;;;;;;;9.43;6.05;;;;;;;25.78;44.39;94961.28;5006254;28;20034;-71
2021/09/17 04:36:15;;;;;;;14.15;7.25;;;;;;;25.78;44.17;94966.75;4990208;28;20030;-71
2021/09/17 04:38:40;;;;;;;9.82;6.93;;;;;;;25.73;44.93;94953.94;5010082;28;20412;-71
2021/09/17 04:41:06;;;;;;;12.85;7.07;;;;;;;25.59;45.25;94944.22;5009876;28;20519;-71
2021/09/17 04:43:31;;;;;;;11.45;7.22;;;;;;;25.62;44.68;94954.09;5003740;28;20061;-72
2021/09/17 04:45:57;;;;;;;10.80;7.20;;;;;;;25.62;44.47;94948.63;4997022;28;20044;-71
2021/09/17 04:48:22;;;;;;;10.65;6.90;;;;;;;25.68;44.15;94941.09;5005651;28;20040;-70
2021/09/17 04:50:48;;;;;;;10.25;7.00;;;;;;;25.71;43.75;94940.03;4995560;28;20026;-71
2021/09/17 04:53:13;;;;;;;13.35;7.68;;;;;;;25.77;44.16;94948.88;5005699;28;20661;-72
2021/09/17 04:55:39;;;;;;;11.18;6.55;;;;;;;25.81;44.29;94945.31;5003400;28;20026;-71
2021/09/17 04:58:05;;;;;;;13.43;7.28;;;;;;;25.72;44.64;94930.56;4997042;28;20038;-72
2021/09/17 05:00:31;;;;;;;12.50;7.10;;;;;;;25.79;43.93;94919.72;5011479;28;20135;-71
2021/09/17 05:02:56;;;;;;;10.07;7.10;;;;;;;25.91;43.63;94938.13;4985385;28;20127;-71
2021/09/17 05:05:22;;;;;;;10.18;6.93;;;;;;;25.96;43.19;94940.03;4986794;28;20027;-72
2021/09/17 05:07:48;;;;;;;9.88;6.65;;;;;;;26.03;43.29;94947.59;4987535;28;20116;-71
2021/09/17 05:10:13;;;;;;;10.23;7.00;;;;;;;26.04;44.07;94953.81;4995394;28;20049;-71
2021/09/17 05:12:39;;;;;;;14.38;7.60;;;;;;;26.10;43.75;94943.47;5004770;28;20033;-72
2021/09/17 05:15:05;;;;;;;12.55;7.78;;;;;;;26.14;43.35;94938.41;5005399;28;20520;-71
2021/09/17 05:17:43;;;;;;;11.95;8.13;;;;;;;26.08;44.04;94946.00;4997324;28;20798;-69
2021/09/17 05:20:09;;;;;;;11.63;7.38;;;;;;;26.17;44.20;94949.03;4984759;28;20042;-69
2021/09/17 05:22:34;;;;;;;13.82;6.82;;;;;;;26.19;44.30;94941.06;4985599;28;20030;-69
2021/09/17 05:25:00;;;;;;;10.95;6.95;;;;;;;26.17;44.14;94916.19;4985820;28;20425;-69
2021/09/17 05:27:26;;;;;;;13.10;7.85;;;;;;;26.29;42.67;94929.16;5000691;28;20779;-67
2021/09/17 05:29:52;;;;;;;12.13;7.70;;;;;;;26.32;42.65;94917.16;4985568;28;20213;-67
2021/09/17 05:32:18;;;;;;;11.93;7.40;;;;;;;26.34;41.88;94914.59;4906714;28;20796;-67
2021/09/17 05:34:44;;;;;;;13.60;8.32;;;;;;;26.44;41.84;94931.31;4981449;28;20045;-67
2021/09/17 05:37:09;;;;;;;12.70;7.65;;;;;;;26.42;42.71;94931.13;5002149;28;20025;-69
2021/09/17 05:39:35;;;;;;;12.38;7.18;;;;;;;26.34;42.90;94837.22;4991211;28;20045;-69
2021/09/17 05:42:00;;;;;;;15.90;7.30;;;;;;;26.48;42.83;94929.00;5004459;28;20026;-72
2021/09/17 05:44:27;;;;;;;12.00;7.30;;;;;;;26.51;42.60;94931.41;4998958;28;20050;-71
2021/09/17 05:46:52;;;;;;;13.65;6.95;;;;;;;26.54;42.92;94933.06;5020500;28;20030;-70
2021/09/17 05:49:18;;;;;;;11.43;6.78;;;;;;;26.45;43.27;94919.09;4994127;28;20042;-72
2021/09/17 05:51:43;;;;;;;11.55;6.90;;;;;;;26.51;43.61;94922.44;4997362;28;20041;-69
2021/09/17 05:54:09;;;;;;;13.02;7.13;;;;;;;26.53;43.67;94919.91;5002015;28;20030;-71
2021/09/17 05:56:34;;;;;;;19.63;8.23;;;;;;;26.52;44.93;94923.94;5002592;28;20863;-71
2021/09/17 05:59:00;;;;;;;16.75;7.32;;;;;;;26.57;44.34;94920.31;5001094;28;20472;-70
2021/09/17 06:01:25;;;;;;;17.75;8.40;;;;;;;26.62;43.98;94927.69;5002927;28;20532;-70
2021/09/17 06:03:50;;;;;;;13.23;7.55;;;;;;;26.64;42.99;94919.69;5003526;28;20483;-70
2021/09/17 06:06:18;;;;;;;18.10;7.63;;;;;;;26.55;42.90;94907.16;5002637;28;20084;-70
2021/09/17 06:08:43;;;;;;;13.90;7.30;;;;;;;26.74;43.24;94917.94;4999520;28;20105;-71
2021/09/17 06:11:09;;;;;;;16.02;8.23;;;;;;;26.76;43.26;94915.41;5003612;28;20261;-70
2021/09/17 06:13:34;;;;;;;12.93;8.23;;;;;;;26.71;42.80;94913.53;5003468;28;20018;-70
2021/09/17 06:16:00;;;;;;;17.58;8.10;;;;;;;26.87;43.00;94927.56;5007652;28;20048;-70
2021/09/17 06:18:25;;;;;;;15.90;8.77;;;;;;;26.90;43.06;94923.78;5007810;28;20025;-70
2021/09/17 06:20:51;;;;;;;12.95;8.07;;;;;;;26.92;42.62;94923.25;5007942;28;20025;-70
2021/09/17 06:23:16;;;;;;;16.70;7.88;;;;;;;26.89;42.97;94925.06;5005555;28;20026;-70
2021/09/17 06:25:42;;;;;;;14.50;7.93;;;;;;;26.97;42.61;94925.88;5001662;28;20033;-70
2021/09/17 06:28:08;;;;;;;16.33;8.70;;;;;;;26.93;42.17;94914.50;5006613;28;20022;-70
2021/09/17 06:30:34;;;;;;;14.18;8.05;;;;;;;26.81;42.41;94913.25;5001631;28;20030;-72
2021/09/17 06:32:59;;;;;;;14.52;8.25;;;;;;;26.86;41.59;94904.19;5007618;28;20041;-70
2021/09/17 06:35:25;;;;;;;14.68;9.13;;;;;;;26.88;41.36;94907.13;5005254;28;20026;-72
2021/09/17 06:37:52;;;;;;;17.55;8.98;;;;;;;26.85;41.41;94913.66;5005089;28;20083;-72
2021/09/17 06:40:19;;;;;;;12.50;7.70;;;;;;;26.99;40.86;94926.06;4998326;28;20097;-70
2021/09/17 06:42:45;;;;;;;14.13;7.50;;;;;;;27.09;40.22;94927.06;4987315;28;20014;-70
2021/09/17 06:45:10;;;;;;;18.88;7.80;;;;;;;27.17;40.42;94922.38;4990647;28;20073;-70
2021/09/17 06:47:50;;;;;;;13.40;7.57;;;;;;;27.11;39.94;94935.47;4995593;28;20081;-69
2021/09/17 06:50:16;;;;;;;13.52;6.57;;;;;;;27.24;39.39;94921.72;4993121;28;20531;-68
2021/09/17 06:52:47;;;;;;;13.98;7.47;;;;;;;27.15;39.64;94924.91;4989596;28;20474;-69
2021/09/17 06:55:16;;;;;;;16.85;7.93;;;;;;;27.21;39.57;94916.56;4988742;28;20594;-69
2021/09/17 06:57:49;;;;;;;16.00;7.15;;;;;;;27.25;39.55;94923.19;4990584;28;20027;-70
2021/09/17 07:00:15;;;;;;;13.88;6.80;;;;;;;27.18;39.23;94918.38;5008794;28;20034;-72
2021/09/17 07:02:41;;;;;;;12.57;7.15;;;;;;;27.32;39.26;94911.53;4993717;28;20501;-73
2021/09/17 07:05:07;;;;;;;13.48;6.88;;;;;;;27.39;39.03;94910.84;4991913;28;20033;-72
2021/09/17 07:07:32;;;;;;;12.43;6.68;;;;;;;27.46;38.95;94899.19;4994698;28;20491;-70
2021/09/17 07:09:58;;;;;;;11.93;5.97;;;;;;;27.50;37.99;94894.13;4993584;28;20026;-70
2021/09/17 07:12:23;;;;;;;14.23;5.85;;;;;;;27.56;37.07;94898.19;4993923;28;20022;-70
2021/09/17 07:14:49;;;;;;;12.35;5.57;;;;;;;27.69;37.52;94891.88;4992627;28;20501;-69
2021/09/17 07:17:14;;;;;;;13.30;5.93;;;;;;;27.65;37.35;94894.22;4993554;28;20165;-69
2021/09/17 07:19:40;;;;;;;12.27;6.07;;;;;;;27.62;38.07;94889.81;4991387;28;20160;-69
2021/09/17 07:22:07;;;;;;;10.75;5.90;;;;;;;27.74;37.02;94886.22;4991429;28;20666;-70
2021/09/17 07:24:32;;;;;;;10.38;5.20;;;;;;;27.75;37.26;94876.72;4994548;28;20484;-69
2021/09/17 07:26:58;;;;;;;13.63;5.68;;;;;;;27.74;36.91;94870.50;4992073;28;20025;-69
2021/09/17 07:29:23;;;;;;;45.28;18.65;;;;;;;27.77;36.60;94874.91;5000492;28;20483;-70
2021/09/17 07:31:49;;;;;;;15.07;9.48;;;;;;;27.82;35.90;94870.53;5002288;28;20056;-69
2021/09/17 07:34:14;;;;;;;14.38;8.75;;;;;;;27.96;35.57;94883.56;4985389;28;20034;-70
2021/09/17 07:36:40;;;;;;;11.82;6.20;;;;;;;28.03;35.23;94874.66;4982234;28;20033;-70
2021/09/17 07:39:05;;;;;;;15.77;8.05;;;;;;;28.02;35.12;94873.16;4985199;28;20027;-69
2021/09/17 07:41:31;;;;;;;11.43;6.75;;;;;;;28.10;35.00;94868.50;4986516;28;20555;-70
2021/09/17 07:43:56;;;;;;;12.57;6.30;;;;;;;28.09;34.61;94864.25;4987090;28;20038;-76
2021/09/17 07:46:22;;;;;;;11.63;6.40;;;;;;;28.18;34.41;94865.78;5026270;28;20940;-69
2021/09/17 07:48:47;;;;;;;13.00;6.50;;;;;;;28.18;34.65;94857.53;4987945;28;20428;-66
2021/09/17 07:51:14;;;;;;;10.68;5.85;;;;;;;28.35;34.31;94861.22;4986777;28;20026;-69
2021/09/17 07:53:40;;;;;;;8.20;5.43;;;;;;;28.22;34.45;94858.66;4989089;28;20104;-69
2021/09/17 07:56:05;;;;;;;10.23;5.95;;;;;;;28.10;34.54;94856.75;5002539;28;20028;-70
2021/09/17 07:58:31;;;;;;;11.35;5.70;;;;;;;28.05;34.83;94850.13;4986329;28;20033;-69
2021/09/17 08:00:56;;;;;;;8.77;5.18;;;;;;;28.28;33.94;94853.69;4987721;28;20022;-71
2021/09/17 08:03:28;;;;;;;9.73;5.47;;;;;;;28.08;35.17;94843.53;4987054;28;20030;-69
2021/09/17 08:05:54;;;;;;;12.63;5.50;;;;;;;28.13;35.59;94850.94;4986946;28;20052;-69
2021/09/17 08:08:19;;;;;;;11.38;5.70;;;;;;;28.08;35.74;94832.56;4986898;28;20624;-69
2021/09/17 08:10:45;;;;;;;8.00;5.25;;;;;;;28.13;35.17;94828.97;4990903;28;20022;-70
2021/09/17 08:13:10;;;;;;;9.82;5.18;;;;;;;28.24;35.20;94812.84;4985447;28;20046;-69
2021/09/17 08:15:36;;;;;;;7.68;5.05;;;;;;;28.40;35.06;94813.59;4985763;28;20027;-69
2021/09/17 08:18:01;;;;;;;10.05;5.20;;;;;;;28.28;34.71;94817.97;4992681;28;20023;-69
2021/09/17 08:20:26;;;;;;;9.43;5.25;;;;;;;28.24;35.06;94812.13;4986295;28;20389;-69
2021/09/17 08:22:52;;;;;;;10.80;5.32;;;;;;;28.31;34.81;94811.41;4986487;28;20026;-69
2021/09/17 08:25:18;;;;;;;11.65;5.25;;;;;;;28.26;35.49;94815.78;5002544;28;20030;-70
2021/09/17 08:27:43;;;;;;;9.45;5.30;;;;;;;28.28;35.24;94809.75;4986751;28;20030;-70
2021/09/17 08:30:09;;;;;;;10.63;5.45;;;;;;;28.24;35.28;94809.38;4988070;28;20043;-69
2021/09/17 08:32:38;;;;;;;11.30;5.30;;;;;;;28.24;35.30;94806.63;4992323;28;20121;-71
2021/09/17 08:35:05;;;;;;;5.95;4.80;;;;;;;28.22;35.25;94798.22;5003874;28;20034;-72
2021/09/17 08:37:30;;;;;;;12.70;5.57;;;;;;;28.15;35.03;94798.94;5001156;28;20616;-73
2021/09/17 08:39:55;;;;;;;11.27;4.78;;;;;;;28.14;35.06;94802.94;4994501;28;20026;-75
2021/09/17 08:42:21;;;;;;;9.15;5.07;;;;;;;28.15;34.61;94803.69;4978954;28;20037;-73
2021/09/17 08:44:47;;;;;;;11.18;5.43;;;;;;;28.24;35.22;94806.63;5006318;28;20075;-73
2021/09/17 08:47:16;;;;;;;10.00;5.30;;;;;;;28.15;35.23;94809.91;5007012;28;20697;-71
2021/09/17 08:49:42;;;;;;;8.23;5.20;;;;;;;28.18;34.92;94803.31;5006529;28;20036;-73
2021/09/17 08:52:07;;;;;;;11.50;5.18;;;;;;;28.30;35.32;94804.44;4989197;28;20030;-71
2021/09/17 08:54:33;;;;;;;8.48;5.18;;;;;;;28.27;35.28;94800.06;5005743;28;20493;-71
2021/09/17 08:56:58;;;;;;;7.47;4.95;;;;;;;28.33;35.12;94808.84;5006691;28;20485;-72
2021/09/17 08:59:24;;;;;;;7.47;4.93;;;;;;;28.33;35.51;94803.38;5006612;28;20025;-71
2021/09/17 09:01:49;;;;;;;9.00;5.10;;;;;;;28.37;35.88;94787.97;5005968;28;20032;-71
2021/09/17 09:04:15;;;;;;;9.35;5.13;;;;;;;28.31;35.36;94789.41;5006215;28;20022;-71
2021/09/17 09:06:42;;;;;;;13.73;5.95;;;;;;;28.44;35.38;94792.00;5005549;28;20018;-70
2021/09/17 09:09:18;;;;;;;7.88;5.03;;;;;;;28.44;35.08;94798.22;5006631;28;20034;-71
2021/09/17 09:11:52;;;;;;;9.73;5.13;;;;;;;28.54;35.82;94790.19;5005655;28;20037;-71
2021/09/17 09:14:18;;;;;;;10.77;5.55;;;;;;;28.59;35.28;94792.03;4998886;28;20046;-71
2021/09/17 09:16:46;;;;;;;10.45;4.90;;;;;;;28.64;35.59;94783.59;4968953;28;20026;-70
2021/09/17 09:19:22;;;;;;;11.05;5.03;;;;;;;28.72;35.66;94778.16;5003633;28;20076;-72
2021/09/17 09:21:50;;;;;;;10.55;5.03;;;;;;;28.77;35.59;94780.69;5006820;28;20037;-73
2021/09/17 09:24:18;;;;;;;9.95;4.70;;;;;;;28.86;34.97;94777.38;4997155;28;20127;-73
2021/09/17 09:26:46;;;;;;;12.45;5.05;;;;;;;28.84;34.99;94769.69;4994189;28;20038;-73
2021/09/17 09:29:28;;;;;;;11.95;5.20;;;;;;;28.84;35.72;94774.47;5003057;28;20108;-73
2021/09/17 09:31:53;;;;;;;11.73;5.00;;;;;;;28.92;35.33;94775.94;5005407;28;20021;-73
2021/09/17 09:34:21;;;;;;;9.32;4.78;;;;;;;29.00;35.52;94776.66;5004909;28;20096;-73
2021/09/17 09:36:47;;;;;;;8.85;4.90;;;;;;;29.01;35.07;94772.59;4992108;28;20049;-73
2021/09/17 09:39:12;;;;;;;10.38;5.45;;;;;;;28.95;35.63;94758.34;5006541;28;20099;-74
2021/09/17 09:41:39;;;;;;;11.32;4.93;;;;;;;28.94;35.43;94756.84;5004512;28;20030;-73
2021/09/17 09:44:14;;;;;;;13.55;5.68;;;;;;;28.97;35.93;94755.75;5004680;28;20050;-72
2021/09/17 09:46:44;;;;;;;9.93;5.07;;;;;;;28.95;35.21;94747.34;5005963;28;20079;-70
2021/09/17 09:49:11;;;;;;;9.32;5.20;;;;;;;28.98;35.86;94746.19;5008723;28;20029;-72
2021/09/17 09:51:42;;;;;;;11.35;5.22;;;;;;;28.98;35.68;94740.69;5008704;28;20030;-72
2021/09/17 09:54:08;;;;;;;9.50;5.63;;;;;;;28.99;35.55;94741.44;4999579;28;20683;-73
2021/09/17 09:56:35;;;;;;;8.98;4.68;;;;;;;29.01;35.93;94734.09;5003980;28;20084;-73
2021/09/17 09:59:05;;;;;;;11.38;4.47;;;;;;;28.93;35.55;94716.88;5008598;28;20404;-72
2021/09/17 10:01:38;;;;;;;14.13;5.38;;;;;;;28.99;35.87;94720.19;5003031;28;20029;-73
2021/09/17 10:04:04;;;;;;;10.75;4.97;;;;;;;29.02;35.20;94708.06;5007232;28;20030;-73
2021/09/17 10:06:37;;;;;;;15.07;5.10;;;;;;;29.07;35.24;94712.63;5009491;28;20032;-72
2021/09/17 10:09:04;;;;;;;11.15;5.43;;;;;;;29.05;35.87;94717.25;4991994;28;20026;-73
2021/09/17 10:11:29;;;;;;;13.50;5.45;;;;;;;29.11;35.51;94732.25;5009934;28;20034;-74
2021/09/17 10:13:57;;;;;;;11.65;5.13;;;;;;;29.12;36.07;94714.47;5002610;28;20022;-74
2021/09/17 10:16:23;;;;;;;10.88;4.80;;;;;;;29.06;35.74;94696.69;5000299;28;20030;-73
2021/09/17 10:18:48;;;;;;;14.18;4.90;;;;;;;29.15;35.88;94704.34;4988513;28;20030;-73
2021/09/17 10:21:46;;;;;;;13.80;5.72;;;;;;;29.15;35.99;94716.13;5013481;28;20022;-72
2021/09/17 10:24:26;;;;;;;16.58;5.18;;;;;;;29.04;35.55;94716.50;5011593;28;20056;-73
2021/09/17 10:26:55;;;;;;;13.13;5.22;;;;;;;29.04;35.85;94705.50;5010678;28;20036;-72
2021/09/17 10:29:39;;;;;;;17.20;5.40;;;;;;;28.98;36.16;94704.97;5009260;28;20113;-72
2021/09/17 10:32:06;;;;;;;16.70;4.90;;;;;;;28.95;35.77;94708.84;5009864;28;20356;-74
2021/09/17 10:34:39;;;;;;;12.65;4.40;;;;;;;28.97;35.55;94705.50;4981171;28;20028;-74
2021/09/17 10:37:05;;;;;;;13.00;5.05;;;;;;;28.87;36.15;94680.59;4992099;28;20038;-73
2021/09/17 10:39:31;;;;;;;15.75;5.50;;;;;;;28.76;35.90;94681.00;5004238;28;20475;-73
2021/09/17 10:42:13;;;;;;;10.40;5.03;;;;;;;28.76;36.27;94686.50;5009558;28;20026;-74
2021/09/17 10:45:00;;;;;;;13.35;4.93;;;;;;;28.75;36.51;94679.53;5009365;28;20104;-74
2021/09/17 10:47:41;;;;;;;14.13;4.50;;;;;;;28.63;36.95;94672.22;5008756;28;20556;-74
2021/09/17 10:50:07;;;;;;;14.20;4.88;;;;;;;28.54;36.22;94653.53;5003515;28;20022;-74
2021/09/17 10:52:37;;;;;;;12.23;4.63;;;;;;;28.60;36.26;94661.59;4999303;28;20030;-74
2021/09/17 10:55:03;;;;;;;14.85;4.38;;;;;;;28.49;36.50;94656.47;5008516;28;20036;-73
2021/09/17 10:57:29;;;;;;;10.30;4.18;;;;;;;28.46;37.11;94646.56;5006690;28;20026;-74
2021/09/17 10:59:54;;;;;;;12.90;4.45;;;;;;;28.36;36.61;94642.94;5005920;28;20049;-74
2021/09/17 11:02:19;;;;;;;12.70;4.45;;;;;;;28.29;36.59;94633.41;4996863;28;20021;-74
2021/09/17 11:04:46;;;;;;;17.50;4.68;;;;;;;28.36;36.88;94637.44;4991301;28;20076;-72
2021/09/17 11:07:17;;;;;;;14.68;4.70;;;;;;;28.28;37.14;94636.69;4995334;28;20053;-73
2021/09/17 11:09:45;;;;;;;13.88;4.40;;;;;;;28.19;36.73;94634.53;4997187;28;20045;-72
2021/09/17 11:12:24;;;;;;;13.90;4.45;;;;;;;28.08;36.73;94645.13;4992812;28;20381;-73
2021/09/17 11:15:15;;;;;;;19.55;4.65;;;;;;;28.16;37.08;94630.16;4997980;28;20053;-74
2021/09/17 11:17:41;;;;;;;19.38;4.43;;;;;;;28.11;36.82;94619.34;4988526;28;20053;-73
2021/09/17 11:20:08;;;;;;;14.77;4.53;;;;;;;28.06;37.62;94620.94;5003156;28;20061;-73
2021/09/17 11:22:49;;;;;;;17.98;4.35;;;;;;;27.88;37.73;94605.56;5010040;28;20511;-73
2021/09/17 11:25:39;;;;;;;15.60;4.82;;;;;;;27.97;37.08;94624.25;5011184;28;20110;-72
2021/09/17 11:28:27;;;;;;;14.98;4.40;;;;;;;27.90;37.32;94603.00;5010626;28;20033;-73